sensor_id;sensor_type;location;lat;lon;timestamp;pressure;altitude;pressure_sealevel;temperature;humidity
56582;BME280;42463;52.214;21.238;2023-08-31T00:01:50;99400.21;;;19.00;76.54
56582;BME280;42463;52.214;21.238;2023-08-31T00:03:57;99401.42;;;19.01;76.33
56582;BME280;42463;52.214;21.238;2023-08-31T00:06:04;99399.45;;;19.01;76.30
56582;BME280;42463;52.214;21.238;2023-08-31T00:08:12;99401.54;;;19.00;76.08
56582;BME280;42463;52.214;21.238;2023-08-31T00:10:18;99400.96;;;18.99;76.10
56582;BME280;42463;52.214;21.238;2023-08-31T00:12:24;99401.35;;;18.99;76.07
56582;BME280;42463;52.214;21.238;2023-08-31T00:14:30;99401.14;;;18.96;75.82
56582;BME280;42463;52.214;21.238;2023-08-31T00:16:37;99403.98;;;18.94;75.74
56582;BME280;42463;52.214;21.238;2023-08-31T00:18:43;99406.39;;;18.91;75.65
56582;BME280;42463;52.214;21.238;2023-08-31T00:20:49;99407.23;;;18.91;75.90
56582;BME280;42463;52.214;21.238;2023-08-31T00:22:55;99406.23;;;18.90;75.76
56582;BME280;42463;52.214;21.238;2023-08-31T00:25:01;99402.40;;;18.88;75.74
56582;BME280;42463;52.214;21.238;2023-08-31T00:27:07;99400.43;;;18.88;75.90
56582;BME280;42463;52.214;21.238;2023-08-31T00:29:16;99397.61;;;18.88;76.07
56582;BME280;42463;52.214;21.238;2023-08-31T00:31:22;99393.92;;;18.88;76.03
56582;BME280;42463;52.214;21.238;2023-08-31T00:33:28;99392.09;;;18.88;75.84
56582;BME280;42463;52.214;21.238;2023-08-31T00:35:35;99395.56;;;18.86;75.79
56582;BME280;42463;52.214;21.238;2023-08-31T00:37:41;99397.55;;;18.84;75.85
56582;BME280;42463;52.214;21.238;2023-08-31T00:39:47;99397.70;;;18.85;75.98
56582;BME280;42463;52.214;21.238;2023-08-31T00:41:56;99400.63;;;18.83;75.81
56582;BME280;42463;52.214;21.238;2023-08-31T00:44:01;99402.63;;;18.82;75.58
56582;BME280;42463;52.214;21.238;2023-08-31T00:46:09;99404.96;;;18.81;75.85
56582;BME280;42463;52.214;21.238;2023-08-31T00:48:16;99400.70;;;18.82;75.91
56582;BME280;42463;52.214;21.238;2023-08-31T00:50:22;99399.17;;;18.84;75.63
56582;BME280;42463;52.214;21.238;2023-08-31T00:52:28;99396.58;;;18.84;75.69
56582;BME280;42463;52.214;21.238;2023-08-31T00:54:34;99396.34;;;18.81;75.81
56582;BME280;42463;52.214;21.238;2023-08-31T00:56:40;99397.84;;;18.79;75.82
56582;BME280;42463;52.214;21.238;2023-08-31T00:58:46;99397.91;;;18.79;75.74
56582;BME280;42463;52.214;21.238;2023-08-31T01:03:53;99398.77;;;18.77;75.66
56582;BME280;42463;52.214;21.238;2023-08-31T01:06:09;99399.51;;;18.76;75.78
56582;BME280;42463;52.214;21.238;2023-08-31T01:08:24;99401.33;;;18.76;75.58
56582;BME280;42463;52.214;21.238;2023-08-31T01:10:38;99402.39;;;18.75;75.53
56582;BME280;42463;52.214;21.238;2023-08-31T01:12:52;99405.14;;;18.75;75.41
56582;BME280;42463;52.214;21.238;2023-08-31T01:15:03;99408.69;;;18.76;75.54
56582;BME280;42463;52.214;21.238;2023-08-31T01:17:14;99411.98;;;18.76;75.50
56582;BME280;42463;52.214;21.238;2023-08-31T01:19:34;99410.90;;;18.74;75.41
56582;BME280;42463;52.214;21.238;2023-08-31T01:21:46;99412.31;;;18.72;75.29
56582;BME280;42463;52.214;21.238;2023-08-31T01:23:55;99409.59;;;18.71;75.31
56582;BME280;42463;52.214;21.238;2023-08-31T01:26:05;99412.73;;;18.71;75.02
56582;BME280;42463;52.214;21.238;2023-08-31T01:28:12;99413.13;;;18.71;75.31
56582;BME280;42463;52.214;21.238;2023-08-31T01:30:18;99412.54;;;18.71;75.38
56582;BME280;42463;52.214;21.238;2023-08-31T01:32:24;99416.96;;;18.70;75.43
56582;BME280;42463;52.214;21.238;2023-08-31T01:34:30;99420.27;;;18.70;75.39
56582;BME280;42463;52.214;21.238;2023-08-31T01:36:38;99419.42;;;18.70;75.48
56582;BME280;42463;52.214;21.238;2023-08-31T01:38:50;99414.91;;;18.69;75.13
56582;BME280;42463;52.214;21.238;2023-08-31T01:41:03;99413.16;;;18.69;74.92
56582;BME280;42463;52.214;21.238;2023-08-31T01:43:12;99410.20;;;18.65;74.74
56582;BME280;42463;52.214;21.238;2023-08-31T01:45:21;99408.74;;;18.62;74.82
56582;BME280;42463;52.214;21.238;2023-08-31T01:47:28;99408.98;;;18.59;75.05
56582;BME280;42463;52.214;21.238;2023-08-31T01:49:38;99411.33;;;18.57;75.02
56582;BME280;42463;52.214;21.238;2023-08-31T01:51:44;99407.73;;;18.57;75.22
56582;BME280;42463;52.214;21.238;2023-08-31T01:53:50;99412.15;;;18.56;75.08
56582;BME280;42463;52.214;21.238;2023-08-31T01:55:58;99406.58;;;18.56;75.11
56582;BME280;42463;52.214;21.238;2023-08-31T01:58:04;99406.38;;;18.59;75.16
56582;BME280;42463;52.214;21.238;2023-08-31T02:00:12;99406.80;;;18.59;74.86
56582;BME280;42463;52.214;21.238;2023-08-31T02:02:20;99409.09;;;18.58;75.11
56582;BME280;42463;52.214;21.238;2023-08-31T02:04:26;99412.27;;;18.57;75.01
56582;BME280;42463;52.214;21.238;2023-08-31T02:06:34;99409.63;;;18.55;74.83
56582;BME280;42463;52.214;21.238;2023-08-31T02:08:41;99414.61;;;18.55;75.05
56582;BME280;42463;52.214;21.238;2023-08-31T02:10:48;99416.41;;;18.55;74.71
56582;BME280;42463;52.214;21.238;2023-08-31T02:13:01;99424.48;;;18.55;74.69
56582;BME280;42463;52.214;21.238;2023-08-31T02:15:09;99422.50;;;18.54;74.54
56582;BME280;42463;52.214;21.238;2023-08-31T02:17:15;99418.11;;;18.52;74.61
56582;BME280;42463;52.214;21.238;2023-08-31T02:19:21;99416.06;;;18.49;74.76
56582;BME280;42463;52.214;21.238;2023-08-31T02:21:27;99418.05;;;18.48;74.81
56582;BME280;42463;52.214;21.238;2023-08-31T02:23:32;99418.52;;;18.46;74.55
56582;BME280;42463;52.214;21.238;2023-08-31T02:25:40;99416.39;;;18.46;74.57
56582;BME280;42463;52.214;21.238;2023-08-31T02:27:46;99414.71;;;18.45;74.53
56582;BME280;42463;52.214;21.238;2023-08-31T02:29:53;99414.30;;;18.45;74.44
56582;BME280;42463;52.214;21.238;2023-08-31T02:32:00;99414.02;;;18.43;74.48
56582;BME280;42463;52.214;21.238;2023-08-31T02:34:05;99409.19;;;18.40;74.58
56582;BME280;42463;52.214;21.238;2023-08-31T02:36:11;99418.20;;;18.40;74.63
56582;BME280;42463;52.214;21.238;2023-08-31T02:38:17;99419.86;;;18.39;74.75
56582;BME280;42463;52.214;21.238;2023-08-31T02:40:25;99422.87;;;18.37;74.60
56582;BME280;42463;52.214;21.238;2023-08-31T02:42:31;99419.69;;;18.38;74.64
56582;BME280;42463;52.214;21.238;2023-08-31T02:44:36;99424.02;;;18.39;74.41
56582;BME280;42463;52.214;21.238;2023-08-31T02:46:42;99420.41;;;18.39;74.41
56582;BME280;42463;52.214;21.238;2023-08-31T02:48:51;99420.44;;;18.39;74.45
56582;BME280;42463;52.214;21.238;2023-08-31T02:50:57;99420.31;;;18.38;74.38
56582;BME280;42463;52.214;21.238;2023-08-31T02:53:05;99424.62;;;18.36;74.13
56582;BME280;42463;52.214;21.238;2023-08-31T02:55:11;99426.05;;;18.34;74.43
56582;BME280;42463;52.214;21.238;2023-08-31T02:57:17;99425.45;;;18.33;74.28
56582;BME280;42463;52.214;21.238;2023-08-31T02:59:24;99430.33;;;18.32;74.37
56582;BME280;42463;52.214;21.238;2023-08-31T03:01:30;99431.77;;;18.31;74.74
56582;BME280;42463;52.214;21.238;2023-08-31T03:03:36;99434.17;;;18.30;74.50
56582;BME280;42463;52.214;21.238;2023-08-31T03:05:42;99439.02;;;18.30;74.31
56582;BME280;42463;52.214;21.238;2023-08-31T03:07:47;99440.19;;;18.29;74.40
56582;BME280;42463;52.214;21.238;2023-08-31T03:09:53;99439.92;;;18.31;74.51
56582;BME280;42463;52.214;21.238;2023-08-31T03:12:00;99444.61;;;18.30;74.38
56582;BME280;42463;52.214;21.238;2023-08-31T03:14:07;99448.81;;;18.27;74.47
56582;BME280;42463;52.214;21.238;2023-08-31T03:16:14;99451.44;;;18.27;74.27
56582;BME280;42463;52.214;21.238;2023-08-31T03:18:20;99449.83;;;18.25;74.29
56582;BME280;42463;52.214;21.238;2023-08-31T03:20:25;99453.52;;;18.25;74.38
56582;BME280;42463;52.214;21.238;2023-08-31T03:22:31;99453.34;;;18.25;74.26
56582;BME280;42463;52.214;21.238;2023-08-31T03:24:37;99452.91;;;18.22;74.24
56582;BME280;42463;52.214;21.238;2023-08-31T03:26:43;99452.46;;;18.21;74.13
56582;BME280;42463;52.214;21.238;2023-08-31T03:28:48;99452.95;;;18.17;74.25
56582;BME280;42463;52.214;21.238;2023-08-31T03:30:58;99448.15;;;18.17;74.63
56582;BME280;42463;52.214;21.238;2023-08-31T03:33:05;99444.71;;;18.17;74.72
56582;BME280;42463;52.214;21.238;2023-08-31T03:35:11;99447.69;;;18.17;74.45
56582;BME280;42463;52.214;21.238;2023-08-31T03:37:17;99449.00;;;18.15;74.37
56582;BME280;42463;52.214;21.238;2023-08-31T03:39:24;99456.33;;;18.14;74.65
56582;BME280;42463;52.214;21.238;2023-08-31T03:41:30;99457.10;;;18.13;74.64
56582;BME280;42463;52.214;21.238;2023-08-31T03:43:37;99456.42;;;18.12;74.62
56582;BME280;42463;52.214;21.238;2023-08-31T03:45:43;99454.42;;;18.13;74.82
56582;BME280;42463;52.214;21.238;2023-08-31T03:47:48;99453.90;;;18.12;74.64
56582;BME280;42463;52.214;21.238;2023-08-31T03:49:54;99457.98;;;18.08;74.48
56582;BME280;42463;52.214;21.238;2023-08-31T03:52:00;99460.55;;;18.06;74.74
56582;BME280;42463;52.214;21.238;2023-08-31T03:54:06;99457.23;;;18.04;74.77
56582;BME280;42463;52.214;21.238;2023-08-31T03:56:12;99458.52;;;18.03;74.98
56582;BME280;42463;52.214;21.238;2023-08-31T03:58:18;99460.91;;;18.03;75.05
56582;BME280;42463;52.214;21.238;2023-08-31T04:00:25;99463.01;;;18.05;75.06
56582;BME280;42463;52.214;21.238;2023-08-31T04:02:31;99459.80;;;18.04;75.07
56582;BME280;42463;52.214;21.238;2023-08-31T04:04:38;99460.95;;;17.99;74.95
56582;BME280;42463;52.214;21.238;2023-08-31T04:06:44;99459.98;;;17.99;75.17
56582;BME280;42463;52.214;21.238;2023-08-31T04:08:51;99461.34;;;17.99;75.54
56582;BME280;42463;52.214;21.238;2023-08-31T04:10:56;99462.50;;;18.00;75.35
56582;BME280;42463;52.214;21.238;2023-08-31T04:13:02;99463.76;;;18.01;75.06
56582;BME280;42463;52.214;21.238;2023-08-31T04:15:10;99463.21;;;18.01;75.36
56582;BME280;42463;52.214;21.238;2023-08-31T04:17:18;99461.20;;;18.01;75.39
56582;BME280;42463;52.214;21.238;2023-08-31T04:19:24;99458.75;;;18.01;75.28
56582;BME280;42463;52.214;21.238;2023-08-31T04:21:30;99460.17;;;18.01;75.10
56582;BME280;42463;52.214;21.238;2023-08-31T04:23:35;99465.85;;;18.03;75.44
56582;BME280;42463;52.214;21.238;2023-08-31T04:25:42;99463.36;;;18.06;75.35
56582;BME280;42463;52.214;21.238;2023-08-31T04:27:48;99464.34;;;18.09;75.13
56582;BME280;42463;52.214;21.238;2023-08-31T04:29:53;99463.83;;;18.09;75.05
56582;BME280;42463;52.214;21.238;2023-08-31T04:31:59;99464.90;;;18.09;74.92
56582;BME280;42463;52.214;21.238;2023-08-31T04:34:05;99468.52;;;18.09;75.10
56582;BME280;42463;52.214;21.238;2023-08-31T04:36:12;99467.70;;;18.08;75.11
56582;BME280;42463;52.214;21.238;2023-08-31T04:38:17;99465.97;;;18.08;75.25
56582;BME280;42463;52.214;21.238;2023-08-31T04:40:23;99466.90;;;18.08;74.97
56582;BME280;42463;52.214;21.238;2023-08-31T04:42:29;99462.52;;;18.08;75.03
56582;BME280;42463;52.214;21.238;2023-08-31T04:44:36;99467.29;;;18.08;75.11
56582;BME280;42463;52.214;21.238;2023-08-31T04:46:41;99469.55;;;18.08;75.29
56582;BME280;42463;52.214;21.238;2023-08-31T04:48:47;99472.55;;;18.08;75.36
56582;BME280;42463;52.214;21.238;2023-08-31T04:50:56;99477.72;;;18.09;75.41
56582;BME280;42463;52.214;21.238;2023-08-31T04:53:02;99481.63;;;18.09;75.09
56582;BME280;42463;52.214;21.238;2023-08-31T04:55:09;99480.50;;;18.07;75.24
56582;BME280;42463;52.214;21.238;2023-08-31T04:57:17;99484.44;;;18.07;75.41
56582;BME280;42463;52.214;21.238;2023-08-31T04:59:24;99486.11;;;18.08;75.27
56582;BME280;42463;52.214;21.238;2023-08-31T05:01:30;99490.34;;;18.08;75.22
56582;BME280;42463;52.214;21.238;2023-08-31T05:03:37;99495.61;;;18.08;75.00
56582;BME280;42463;52.214;21.238;2023-08-31T05:05:43;99504.16;;;18.08;75.00
56582;BME280;42463;52.214;21.238;2023-08-31T05:07:49;99506.79;;;18.09;75.31
56582;BME280;42463;52.214;21.238;2023-08-31T05:09:55;99513.59;;;18.10;75.61
56582;BME280;42463;52.214;21.238;2023-08-31T05:12:01;99514.06;;;18.12;75.57
56582;BME280;42463;52.214;21.238;2023-08-31T05:14:07;99515.98;;;18.13;75.46
56582;BME280;42463;52.214;21.238;2023-08-31T05:16:13;99516.81;;;18.14;75.17
56582;BME280;42463;52.214;21.238;2023-08-31T05:18:20;99516.26;;;18.16;75.20
56582;BME280;42463;52.214;21.238;2023-08-31T05:20:25;99514.83;;;18.17;75.11
56582;BME280;42463;52.214;21.238;2023-08-31T05:22:32;99520.73;;;18.20;75.22
56582;BME280;42463;52.214;21.238;2023-08-31T05:24:38;99521.23;;;18.20;75.06
56582;BME280;42463;52.214;21.238;2023-08-31T05:26:43;99518.80;;;18.20;75.21
56582;BME280;42463;52.214;21.238;2023-08-31T05:28:49;99520.33;;;18.21;75.11
56582;BME280;42463;52.214;21.238;2023-08-31T05:30:57;99522.77;;;18.22;75.45
56582;BME280;42463;52.214;21.238;2023-08-31T05:33:03;99520.38;;;18.23;75.30
56582;BME280;42463;52.214;21.238;2023-08-31T05:35:10;99520.19;;;18.23;75.13
56582;BME280;42463;52.214;21.238;2023-08-31T05:37:15;99523.22;;;18.23;75.11
56582;BME280;42463;52.214;21.238;2023-08-31T05:39:21;99520.17;;;18.23;75.13
56582;BME280;42463;52.214;21.238;2023-08-31T05:41:27;99521.70;;;18.26;75.07
56582;BME280;42463;52.214;21.238;2023-08-31T05:43:33;99522.46;;;18.26;74.48
56582;BME280;42463;52.214;21.238;2023-08-31T05:45:39;99525.98;;;18.27;74.69
56582;BME280;42463;52.214;21.238;2023-08-31T05:47:45;99528.30;;;18.30;74.54
56582;BME280;42463;52.214;21.238;2023-08-31T05:49:51;99531.05;;;18.31;74.53
56582;BME280;42463;52.214;21.238;2023-08-31T05:51:57;99527.52;;;18.32;74.64
56582;BME280;42463;52.214;21.238;2023-08-31T05:54:03;99531.11;;;18.31;74.27
56582;BME280;42463;52.214;21.238;2023-08-31T05:56:08;99535.05;;;18.32;74.20
56582;BME280;42463;52.214;21.238;2023-08-31T05:58:14;99537.24;;;18.33;74.32
56582;BME280;42463;52.214;21.238;2023-08-31T06:00:21;99535.55;;;18.34;74.32
56582;BME280;42463;52.214;21.238;2023-08-31T06:02:27;99539.73;;;18.33;73.79
56582;BME280;42463;52.214;21.238;2023-08-31T06:04:33;99543.86;;;18.32;73.81
56582;BME280;42463;52.214;21.238;2023-08-31T06:06:39;99546.86;;;18.33;73.71
56582;BME280;42463;52.214;21.238;2023-08-31T06:08:45;99543.73;;;18.35;73.70
56582;BME280;42463;52.214;21.238;2023-08-31T06:10:53;99545.11;;;18.39;73.88
56582;BME280;42463;52.214;21.238;2023-08-31T06:12:58;99549.63;;;18.40;73.78
56582;BME280;42463;52.214;21.238;2023-08-31T06:15:06;99549.27;;;18.41;73.45
56582;BME280;42463;52.214;21.238;2023-08-31T06:17:12;99550.66;;;18.43;73.64
56582;BME280;42463;52.214;21.238;2023-08-31T06:19:19;99554.91;;;18.45;73.56
56582;BME280;42463;52.214;21.238;2023-08-31T06:21:24;99555.84;;;18.50;73.68
56582;BME280;42463;52.214;21.238;2023-08-31T06:23:30;99560.10;;;18.52;73.44
56582;BME280;42463;52.214;21.238;2023-08-31T06:25:36;99559.19;;;18.53;73.50
56582;BME280;42463;52.214;21.238;2023-08-31T06:27:43;99560.71;;;18.54;73.13
56582;BME280;42463;52.214;21.238;2023-08-31T06:29:48;99560.84;;;18.53;73.06
56582;BME280;42463;52.214;21.238;2023-08-31T06:31:54;99563.20;;;18.53;73.14
56582;BME280;42463;52.214;21.238;2023-08-31T06:34:00;99562.23;;;18.52;72.19
56582;BME280;42463;52.214;21.238;2023-08-31T06:36:07;99558.35;;;18.52;71.62
56582;BME280;42463;52.214;21.238;2023-08-31T06:38:12;99559.62;;;18.50;71.29
56582;BME280;42463;52.214;21.238;2023-08-31T06:40:18;99563.05;;;18.48;71.09
56582;BME280;42463;52.214;21.238;2023-08-31T06:42:24;99561.36;;;18.49;70.83
56582;BME280;42463;52.214;21.238;2023-08-31T06:44:31;99564.77;;;18.51;70.69
56582;BME280;42463;52.214;21.238;2023-08-31T06:46:36;99570.36;;;18.56;70.85
56582;BME280;42463;52.214;21.238;2023-08-31T06:48:43;99570.14;;;18.61;70.64
56582;BME280;42463;52.214;21.238;2023-08-31T06:50:49;99568.42;;;18.65;70.07
56582;BME280;42463;52.214;21.238;2023-08-31T06:52:55;99571.77;;;18.68;70.18
56582;BME280;42463;52.214;21.238;2023-08-31T06:55:01;99578.23;;;18.72;69.91
56582;BME280;42463;52.214;21.238;2023-08-31T06:57:08;99578.04;;;18.76;70.02
56582;BME280;42463;52.214;21.238;2023-08-31T06:59:14;99576.82;;;18.83;69.55
56582;BME280;42463;52.214;21.238;2023-08-31T07:01:20;99571.84;;;18.90;69.62
56582;BME280;42463;52.214;21.238;2023-08-31T07:03:26;99574.69;;;18.98;69.36
56582;BME280;42463;52.214;21.238;2023-08-31T07:05:34;99581.96;;;19.05;68.38
56582;BME280;42463;52.214;21.238;2023-08-31T07:07:41;99592.55;;;19.08;68.06
56582;BME280;42463;52.214;21.238;2023-08-31T07:09:48;99593.13;;;19.11;67.96
56582;BME280;42463;52.214;21.238;2023-08-31T07:11:55;99594.81;;;19.14;67.92
56582;BME280;42463;52.214;21.238;2023-08-31T07:14:00;99591.15;;;19.15;67.48
56582;BME280;42463;52.214;21.238;2023-08-31T07:16:06;99592.63;;;19.12;67.03
56582;BME280;42463;52.214;21.238;2023-08-31T07:18:12;99595.73;;;19.11;66.81
56582;BME280;42463;52.214;21.238;2023-08-31T07:20:18;99595.92;;;19.14;67.38
56582;BME280;42463;52.214;21.238;2023-08-31T07:22:24;99599.54;;;19.16;67.01
56582;BME280;42463;52.214;21.238;2023-08-31T07:24:30;99597.95;;;19.16;66.73
56582;BME280;42463;52.214;21.238;2023-08-31T07:26:36;99597.77;;;19.13;66.19
56582;BME280;42463;52.214;21.238;2023-08-31T07:28:42;99600.63;;;19.16;67.24
56582;BME280;42463;52.214;21.238;2023-08-31T07:30:48;99597.48;;;19.20;68.02
56582;BME280;42463;52.214;21.238;2023-08-31T07:32:54;99598.35;;;19.20;67.31
56582;BME280;42463;52.214;21.238;2023-08-31T07:35:00;99600.52;;;19.19;66.29
56582;BME280;42463;52.214;21.238;2023-08-31T07:37:08;99601.55;;;19.21;66.20
56582;BME280;42463;52.214;21.238;2023-08-31T07:39:13;99607.30;;;19.23;65.86
56582;BME280;42463;52.214;21.238;2023-08-31T07:41:19;99606.11;;;19.25;65.79
56582;BME280;42463;52.214;21.238;2023-08-31T07:43:26;99604.55;;;19.27;65.18
56582;BME280;42463;52.214;21.238;2023-08-31T07:45:32;99605.96;;;19.29;65.72
56582;BME280;42463;52.214;21.238;2023-08-31T07:47:38;99607.39;;;19.29;65.12
56582;BME280;42463;52.214;21.238;2023-08-31T07:49:44;99611.48;;;19.32;65.10
56582;BME280;42463;52.214;21.238;2023-08-31T07:51:50;99614.86;;;19.34;64.46
56582;BME280;42463;52.214;21.238;2023-08-31T07:53:56;99620.25;;;19.37;65.01
56582;BME280;42463;52.214;21.238;2023-08-31T07:56:02;99618.41;;;19.42;65.30
56582;BME280;42463;52.214;21.238;2023-08-31T07:58:08;99619.67;;;19.50;65.42
56582;BME280;42463;52.214;21.238;2023-08-31T08:00:15;99617.02;;;19.56;64.67
56582;BME280;42463;52.214;21.238;2023-08-31T08:02:21;99622.19;;;19.63;64.63
56582;BME280;42463;52.214;21.238;2023-08-31T08:04:26;99622.73;;;19.71;64.39
56582;BME280;42463;52.214;21.238;2023-08-31T08:06:34;99621.98;;;19.80;64.12
56582;BME280;42463;52.214;21.238;2023-08-31T08:08:39;99621.48;;;19.87;64.64
56582;BME280;42463;52.214;21.238;2023-08-31T08:10:45;99619.44;;;19.95;64.24
56582;BME280;42463;52.214;21.238;2023-08-31T08:12:52;99621.66;;;20.04;63.24
56582;BME280;42463;52.214;21.238;2023-08-31T08:14:57;99625.09;;;20.12;63.10
56582;BME280;42463;52.214;21.238;2023-08-31T08:17:04;99624.50;;;20.20;63.48
56582;BME280;42463;52.214;21.238;2023-08-31T08:19:10;99631.14;;;20.27;63.25
56582;BME280;42463;52.214;21.238;2023-08-31T08:21:15;99635.41;;;20.32;62.59
56582;BME280;42463;52.214;21.238;2023-08-31T08:23:22;99634.59;;;20.33;62.31
56582;BME280;42463;52.214;21.238;2023-08-31T08:25:28;99639.20;;;20.32;61.93
56582;BME280;42463;52.214;21.238;2023-08-31T08:27:34;99638.91;;;20.32;62.19
56582;BME280;42463;52.214;21.238;2023-08-31T08:29:41;99641.19;;;20.35;61.89
56582;BME280;42463;52.214;21.238;2023-08-31T08:31:47;99642.59;;;20.38;62.39
56582;BME280;42463;52.214;21.238;2023-08-31T08:33:53;99643.27;;;20.44;61.81
56582;BME280;42463;52.214;21.238;2023-08-31T08:35:59;99645.46;;;20.50;61.93
56582;BME280;42463;52.214;21.238;2023-08-31T08:38:05;99642.95;;;20.52;61.24
56582;BME280;42463;52.214;21.238;2023-08-31T08:40:11;99644.96;;;20.53;60.91
56582;BME280;42463;52.214;21.238;2023-08-31T08:42:18;99652.58;;;20.57;60.84
56582;BME280;42463;52.214;21.238;2023-08-31T08:44:25;99653.79;;;20.58;59.86
56582;BME280;42463;52.214;21.238;2023-08-31T08:46:34;99652.27;;;20.59;59.74
56582;BME280;42463;52.214;21.238;2023-08-31T08:48:40;99653.18;;;20.61;59.65
56582;BME280;42463;52.214;21.238;2023-08-31T08:50:47;99656.55;;;20.65;59.72
56582;BME280;42463;52.214;21.238;2023-08-31T08:52:53;99654.81;;;20.67;59.06
56582;BME280;42463;52.214;21.238;2023-08-31T08:55:00;99656.95;;;20.70;58.93
56582;BME280;42463;52.214;21.238;2023-08-31T08:57:07;99650.13;;;20.70;58.98
56582;BME280;42463;52.214;21.238;2023-08-31T08:59:13;99649.22;;;20.74;59.34
56582;BME280;42463;52.214;21.238;2023-08-31T09:01:19;99651.71;;;20.75;58.26
56582;BME280;42463;52.214;21.238;2023-08-31T09:03:27;99653.73;;;20.74;58.02
56582;BME280;42463;52.214;21.238;2023-08-31T09:05:33;99654.02;;;20.78;58.96
56582;BME280;42463;52.214;21.238;2023-08-31T09:07:46;99658.27;;;20.82;58.37
56582;BME280;42463;52.214;21.238;2023-08-31T09:10:08;99653.42;;;20.87;57.35
56582;BME280;42463;52.214;21.238;2023-08-31T09:12:14;99649.75;;;20.93;56.90
56582;BME280;42463;52.214;21.238;2023-08-31T09:14:20;99649.23;;;20.96;57.20
56582;BME280;42463;52.214;21.238;2023-08-31T09:16:28;99653.63;;;21.03;57.57
56582;BME280;42463;52.214;21.238;2023-08-31T09:18:35;99650.19;;;21.08;57.17
56582;BME280;42463;52.214;21.238;2023-08-31T09:20:57;99655.51;;;21.14;57.33
56582;BME280;42463;52.214;21.238;2023-08-31T09:23:03;99660.53;;;21.20;57.07
56582;BME280;42463;52.214;21.238;2023-08-31T09:25:10;99664.55;;;21.27;56.63
56582;BME280;42463;52.214;21.238;2023-08-31T09:27:16;99662.88;;;21.33;56.60
56582;BME280;42463;52.214;21.238;2023-08-31T09:29:21;99659.71;;;21.43;56.40
56582;BME280;42463;52.214;21.238;2023-08-31T09:31:30;99653.76;;;21.51;55.68
56582;BME280;42463;52.214;21.238;2023-08-31T09:33:37;99659.38;;;21.59;55.78
56582;BME280;42463;52.214;21.238;2023-08-31T09:35:48;99659.73;;;21.66;55.75
56582;BME280;42463;52.214;21.238;2023-08-31T09:37:57;99664.98;;;21.72;55.98
56582;BME280;42463;52.214;21.238;2023-08-31T09:40:05;99669.63;;;21.77;55.03
56582;BME280;42463;52.214;21.238;2023-08-31T09:42:11;99670.00;;;21.82;55.78
56582;BME280;42463;52.214;21.238;2023-08-31T09:44:19;99667.45;;;21.87;55.21
56582;BME280;42463;52.214;21.238;2023-08-31T09:46:25;99670.96;;;21.91;54.77
56582;BME280;42463;52.214;21.238;2023-08-31T09:48:31;99673.30;;;21.93;54.03
56582;BME280;42463;52.214;21.238;2023-08-31T09:50:37;99678.66;;;21.95;54.48
56582;BME280;42463;52.214;21.238;2023-08-31T09:52:43;99684.46;;;21.99;55.21
56582;BME280;42463;52.214;21.238;2023-08-31T09:54:51;99684.36;;;22.01;55.27
56582;BME280;42463;52.214;21.238;2023-08-31T09:56:57;99693.04;;;22.01;55.34
56582;BME280;42463;52.214;21.238;2023-08-31T09:59:04;99694.08;;;21.99;55.30
56582;BME280;42463;52.214;21.238;2023-08-31T10:01:11;99693.92;;;21.98;55.44
56582;BME280;42463;52.214;21.238;2023-08-31T10:03:16;99693.89;;;21.96;54.92
56582;BME280;42463;52.214;21.238;2023-08-31T10:05:23;99696.77;;;21.96;55.63
56582;BME280;42463;52.214;21.238;2023-08-31T10:07:29;99699.20;;;21.99;55.75
56582;BME280;42463;52.214;21.238;2023-08-31T10:09:36;99698.52;;;21.99;54.70
56582;BME280;42463;52.214;21.238;2023-08-31T10:11:43;99700.14;;;21.98;54.47
56582;BME280;42463;52.214;21.238;2023-08-31T10:13:50;99707.04;;;21.99;54.53
56582;BME280;42463;52.214;21.238;2023-08-31T10:15:58;99703.81;;;22.04;54.08
56582;BME280;42463;52.214;21.238;2023-08-31T10:18:05;99703.80;;;22.11;54.40
56582;BME280;42463;52.214;21.238;2023-08-31T10:20:15;99706.09;;;22.22;53.66
56582;BME280;42463;52.214;21.238;2023-08-31T10:22:21;99707.69;;;22.28;53.75
56582;BME280;42463;52.214;21.238;2023-08-31T10:27:18;99701.67;;;22.30;52.62
56582;BME280;42463;52.214;21.238;2023-08-31T10:29:30;99698.43;;;22.36;52.68
56582;BME280;42463;52.214;21.238;2023-08-31T10:31:36;99700.27;;;22.42;52.51
56582;BME280;42463;52.214;21.238;2023-08-31T10:33:43;99696.38;;;22.49;52.23
56582;BME280;42463;52.214;21.238;2023-08-31T10:35:54;99701.16;;;22.53;51.81
56582;BME280;42463;52.214;21.238;2023-08-31T10:38:16;99700.52;;;22.56;52.34
56582;BME280;42463;52.214;21.238;2023-08-31T10:40:22;99698.04;;;22.60;52.94
56582;BME280;42463;52.214;21.238;2023-08-31T10:42:28;99701.98;;;22.66;52.50
56582;BME280;42463;52.214;21.238;2023-08-31T10:44:33;99705.86;;;22.69;52.04
56582;BME280;42463;52.214;21.238;2023-08-31T10:46:44;99706.83;;;22.70;51.69
56582;BME280;42463;52.214;21.238;2023-08-31T10:48:55;99706.20;;;22.73;52.08
56582;BME280;42463;52.214;21.238;2023-08-31T10:51:01;99710.92;;;22.75;53.27
56582;BME280;42463;52.214;21.238;2023-08-31T10:53:10;99713.30;;;22.75;52.27
56582;BME280;42463;52.214;21.238;2023-08-31T10:55:17;99716.88;;;22.73;51.84
56582;BME280;42463;52.214;21.238;2023-08-31T10:57:30;99717.79;;;22.69;52.39
56582;BME280;42463;52.214;21.238;2023-08-31T10:59:47;99720.30;;;22.66;51.64
56582;BME280;42463;52.214;21.238;2023-08-31T11:01:59;99719.13;;;22.63;51.74
56582;BME280;42463;52.214;21.238;2023-08-31T11:04:11;99720.01;;;22.63;51.37
56582;BME280;42463;52.214;21.238;2023-08-31T11:06:17;99717.05;;;22.62;51.57
56582;BME280;42463;52.214;21.238;2023-08-31T11:08:25;99714.02;;;22.64;51.80
56582;BME280;42463;52.214;21.238;2023-08-31T11:10:31;99714.23;;;22.66;52.10